Pilot L239 — OJ9461 — position and weather

sailwx.info

Track history (hours):
 
Tides and Currents Weather Stations Pressure Air Temp Water Temp Dewpoint Dewpoint Depression Visibility Wind Speed Wind Dir Waves Ship Positions

Pilot L239

Last reported at 2017-Nov-10 07:33 UTC. Time now 2017-Dec-11 17:26 UTC.
Position N 63°18' E 021°30'.
Warning: this ship's position is 31 days out of date.

Length 15 m.

Type: Pilot. MMSI: 230035440.

Date/timePositionNaut miles runAvg speedWind from/ knotsBaromVisibWave heightAir tempDewpointWater temp
2017-Nov-10 07:33N 63°18' E 021°30'119.5
2017-Nov-10 07:30N 63°17' E 021°30'918.7
2017-Nov-10 07:01N 63°08' E 021°25'917.4
2017-Nov-10 06:31N 63°11' E 021°07'2 3.4
2017-Nov-10 06:00N 63°13' E 021°09'0 0.0
2017-Nov-10 05:30N 63°13' E 021°09'0 0.0
2017-Nov-10 05:00N 63°13' E 021°09'0 0.0
2017-Nov-10 04:30N 63°13' E 021°09'0 0.0
2017-Nov-10 04:00N 63°13' E 021°09'0 0.0
2017-Nov-10 03:30N 63°13' E 021°09'0 0.0
2017-Nov-10 03:00N 63°13' E 021°09'0 0.0
2017-Nov-10 02:30N 63°13' E 021°09'0 0.0
2017-Nov-10 02:00N 63°13' E 021°09'0 0.0
2017-Nov-10 01:30N 63°13' E 021°09'0 0.0
2017-Nov-10 01:01N 63°13' E 021°09'0 0.0
2017-Nov-10 00:30N 63°13' E 021°09'0 0.0
2017-Nov-10 00:00N 63°13' E 021°09'0 0.0
2017-Nov-09 23:30N 63°13' E 021°09'0 0.0
2017-Nov-09 23:01N 63°13' E 021°09'0 0.0
2017-Nov-09 22:30N 63°13' E 021°09'0 0.0
2017-Nov-09 22:00N 63°13' E 021°09'0 0.0
2017-Nov-09 21:31N 63°13' E 021°09'0 0.0
2017-Nov-09 21:00N 63°13' E 021°09'0 0.0
2017-Nov-09 20:30N 63°13' E 021°09'0 0.0
2017-Nov-09 20:00N 63°13' E 021°09'0 0.0
2017-Nov-09 19:30N 63°13' E 021°09'3 5.1
2017-Nov-09 19:01N 63°11' E 021°05'918.7
2017-Nov-09 18:30N 63°05' E 020°48'816.1
2017-Nov-09 18:01N 62°58' E 020°40'10317.4
2017-Nov-09 12:04N 61°16' E 021°05'117.7
2017-Nov-09 12:01N 61°15' E 021°05'1019.3
2017-Nov-09 11:31N 61°05' E 021°04'97 4.1
2017-Nov-08 11:46N 59°48' E 023°03'518.1
2017-Nov-08 11:31N 59°48' E 023°12'917.5
2017-Nov-08 11:01N 59°50' E 023°29'918.9
2017-Nov-08 10:31N 59°55' E 023°45'2316.2
2017-Nov-08 09:04N 59°59' E 024°31'219.6
2017-Nov-08 08:59N 59°60' E 024°34'918.9
2017-Nov-08 08:31N 60°05' E 024°48'510.5
2017-Nov-08 08:01N 60°06' E 024°58'0 0.0
2017-Nov-08 07:30N 60°06' E 024°58'0 0.0
2017-Nov-08 07:00N 60°06' E 024°58'0 0.0
2017-Nov-08 06:31N 60°06' E 024°58'0 0.0
2017-Nov-08 06:00N 60°06' E 024°58'0 0.0
2017-Nov-08 05:30N 60°06' E 024°58'0 0.0
2017-Nov-08 05:01N 60°06' E 024°58'0 0.0
2017-Nov-08 04:30N 60°06' E 024°58'0 0.0
2017-Nov-08 04:00N 60°06' E 024°58'0 0.0
2017-Nov-08 03:30N 60°06' E 024°58'0 0.0
2017-Nov-08 03:01N 60°06' E 024°58'0 0.0
2017-Nov-08 02:30N 60°06' E 024°58'0 0.0
2017-Nov-08 02:01N 60°06' E 024°58'0 0.0
2017-Nov-08 01:31N 60°06' E 024°58'0 0.0
2017-Nov-08 01:01N 60°06' E 024°58'0 0.0
2017-Nov-08 00:30N 60°06' E 024°58'0 0.0
2017-Nov-08 00:01N 60°06' E 024°58'0 0.0
2017-Nov-07 23:31N 60°06' E 024°58'0 0.0
2017-Nov-07 23:00N 60°06' E 024°58'0 0.0
2017-Nov-07 22:30N 60°06' E 024°58'0 0.0
2017-Nov-07 22:01N 60°06' E 024°58'0 0.0
2017-Nov-07 21:31N 60°06' E 024°58'0 0.0
2017-Nov-07 21:00N 60°06' E 024°58'0 0.0
2017-Nov-07 20:31N 60°06' E 024°58'0 0.0
2017-Nov-07 20:01N 60°06' E 024°58'0 0.0
2017-Nov-07 19:31N 60°06' E 024°58'0 0.0
2017-Nov-07 19:01N 60°06' E 024°58'0 0.0
2017-Nov-07 18:30N 60°06' E 024°58'0 0.0
2017-Nov-07 18:01N 60°06' E 024°58'0 0.0
2017-Nov-07 17:31N 60°06' E 024°58'0 0.0
2017-Nov-07 17:00N 60°06' E 024°58'0 0.0
2017-Nov-07 16:30N 60°06' E 024°58'0 0.0
2017-Nov-07 16:01N 60°06' E 024°58'0 0.0
2017-Nov-07 15:30N 60°06' E 024°58'0 0.0
2017-Nov-07 15:01N 60°06' E 024°58'0 0.0
2017-Nov-07 14:31N 60°06' E 024°58'0 0.0
2017-Nov-07 14:00N 60°06' E 024°58'0 0.0
2017-Nov-07 13:31N 60°06' E 024°58'2 3.3
2017-Nov-07 13:00N 60°08' E 024°59'2 4.7
2017-Nov-07 12:31N 60°10' E 024°58'0 0.0
2017-Nov-07 12:00N 60°10' E 024°58'2 3.1
2017-Nov-07 11:30N 60°11' E 025°01'4 8.8
2017-Nov-07 11:00N 60°06' E 024°58'0 0.0
2017-Nov-07 10:30N 60°06' E 024°58'0 0.0
2017-Nov-07 10:00N 60°06' E 024°58'0 0.0
2017-Nov-07 09:30N 60°06' E 024°58'0 0.0
2017-Nov-07 09:00N 60°06' E 024°58'0 0.0
2017-Nov-07 08:30N 60°06' E 024°58'0 0.0
2017-Nov-07 08:00N 60°06' E 024°58'0 0.0
2017-Nov-07 07:30N 60°06' E 024°58'0 0.0
2017-Nov-07 07:00N 60°06' E 024°58'0 0.0
2017-Nov-07 06:30N 60°06' E 024°58'0 0.0
2017-Nov-07 06:00N 60°06' E 024°58'0 0.0
2017-Nov-07 05:30N 60°06' E 024°58'0 0.0
2017-Nov-07 05:00N 60°06' E 024°58'0 0.0
2017-Nov-07 04:30N 60°06' E 024°58'0 0.0
2017-Nov-07 04:00N 60°06' E 024°58'0 0.0
2017-Nov-07 03:30N 60°06' E 024°58'0 0.0
2017-Nov-07 03:00N 60°06' E 024°58'0 0.0
2017-Nov-07 02:30N 60°06' E 024°58'0 0.0
2017-Nov-07 02:00N 60°06' E 024°58'0 0.0
2017-Nov-07 01:30N 60°06' E 024°58'0 0.0
2017-Nov-07 01:00N 60°06' E 024°58'0 0.0
2017-Nov-07 00:30N 60°06' E 024°58'0 0.0
2017-Nov-07 00:00N 60°06' E 024°58'0 0.0
2017-Nov-06 23:30N 60°06' E 024°58'0 0.0
2017-Nov-06 23:00N 60°06' E 024°58'0 0.0
2017-Nov-06 22:30N 60°06' E 024°58'0 0.0
2017-Nov-06 22:00N 60°06' E 024°58'0 0.0
2017-Nov-06 21:30N 60°06' E 024°58'0 0.0
2017-Nov-06 21:00N 60°06' E 024°58'0 0.0
2017-Nov-06 20:30N 60°06' E 024°58'0 0.0
2017-Nov-06 02:30N 60°06' E 024°58'0 0.0
2017-Nov-06 02:00N 60°06' E 024°58'0 0.0
2017-Nov-06 01:30N 60°06' E 024°58'0 0.0
2017-Nov-06 01:00N 60°06' E 024°58'0 0.0
2017-Nov-06 00:30N 60°06' E 024°58'0 0.0
2017-Nov-06 00:00N 60°06' E 024°58'0 0.0
2017-Nov-05 23:30N 60°06' E 024°58'0 0.0
2017-Nov-05 23:00N 60°06' E 024°58'0 0.0
2017-Nov-05 22:30N 60°06' E 024°58'0 0.0
2017-Nov-05 22:00N 60°06' E 024°58'0 0.0
2017-Nov-05 21:30N 60°06' E 024°58'0 0.0
2017-Nov-05 21:00N 60°06' E 024°58'0 0.0
2017-Nov-05 20:30N 60°06' E 024°58'0 0.0
2017-Nov-05 20:00N 60°06' E 024°58'0 0.0
2017-Nov-05 19:30N 60°06' E 024°58'0 0.0
2017-Nov-05 19:00N 60°06' E 024°58'0 0.0
2017-Nov-05 18:30N 60°06' E 024°58'0 0.0
2017-Nov-05 18:00N 60°06' E 024°58'0 0.0
2017-Nov-05 17:30N 60°06' E 024°58'0 0.0
2017-Nov-05 17:00N 60°06' E 024°58'0 0.0
2017-Nov-05 16:30N 60°06' E 024°58'0 0.0
2017-Nov-05 16:00N 60°06' E 024°58'0 0.0
2017-Nov-05 15:30N 60°06' E 024°58'0 0.0
2017-Nov-05 15:00N 60°06' E 024°58'0 0.0
2017-Nov-05 14:30N 60°06' E 024°58'0 0.0
2017-Nov-05 14:00N 60°06' E 024°58'0 0.0
2017-Nov-05 13:30N 60°06' E 024°58'0 0.0
2017-Nov-05 13:00N 60°06' E 024°58'0 0.0
2017-Nov-05 12:30N 60°06' E 024°58'0 0.0
2017-Nov-05 12:00N 60°06' E 024°58'0 0.0
2017-Nov-05 11:30N 60°06' E 024°58'0 0.0
2017-Nov-05 11:00N 60°06' E 024°58'0 0.0
2017-Nov-05 10:30N 60°06' E 024°58'0 0.0
2017-Nov-05 10:00N 60°06' E 024°58'0 0.0
2017-Nov-05 09:30N 60°06' E 024°58'0 0.0
2017-Nov-05 09:00N 60°06' E 024°58'0 0.0
2017-Nov-05 08:30N 60°06' E 024°58'0 0.0
2017-Nov-05 08:00N 60°06' E 024°58'0 0.0
2017-Nov-05 07:30N 60°06' E 024°58'0 0.0
2017-Nov-05 07:00N 60°06' E 024°58'0 0.0
2017-Nov-05 06:30N 60°06' E 024°58'0 0.0
2017-Nov-05 06:00N 60°06' E 024°58'0 0.0
2017-Nov-05 05:30N 60°06' E 024°58'0 0.0
2017-Nov-05 05:00N 60°06' E 024°58'0 0.0
2017-Nov-05 04:30N 60°06' E 024°58'0 0.0
2017-Nov-05 04:00N 60°06' E 024°58'0 0.0
2017-Nov-05 03:30N 60°06' E 024°58'0 0.0
2017-Nov-05 03:00N 60°06' E 024°58'0 0.0
2017-Nov-05 02:30N 60°06' E 024°58'0 0.0
2017-Nov-05 02:00N 60°06' E 024°58'0 0.0
2017-Nov-05 01:30N 60°06' E 024°58'0 0.0
2017-Nov-05 01:00N 60°06' E 024°58'0 0.0
2017-Nov-05 00:30N 60°06' E 024°58'0 0.0
2017-Nov-05 00:00N 60°06' E 024°58'0 0.0
2017-Nov-04 23:30N 60°06' E 024°58'0 0.0
2017-Nov-04 23:00N 60°06' E 024°58'0 0.0
2017-Nov-04 22:30N 60°06' E 024°58'0 0.0
2017-Nov-04 22:00N 60°06' E 024°58'0 0.0
2017-Nov-04 21:30N 60°06' E 024°58'0 0.0
2017-Nov-04 21:00N 60°06' E 024°58'0 0.0
2017-Nov-04 20:30N 60°06' E 024°58'0 0.0
2017-Nov-04 20:00N 60°06' E 024°58'0 0.0
2017-Nov-04 19:30N 60°06' E 024°58'0 0.0
2017-Nov-04 19:00N 60°06' E 024°58'0 0.0
2017-Nov-04 18:30N 60°06' E 024°58'0 0.0
2017-Nov-04 18:00N 60°06' E 024°58'0 0.0
2017-Nov-04 17:30N 60°06' E 024°58'0 0.0
2017-Nov-04 17:00N 60°06' E 024°58'0 0.0
2017-Nov-04 16:30N 60°06' E 024°58'0 0.0
2017-Nov-04 16:00N 60°06' E 024°58'0 0.0
2017-Nov-04 15:30N 60°06' E 024°58'0 0.0
2017-Nov-04 15:00N 60°06' E 024°58'0 0.0
2017-Nov-04 14:30N 60°06' E 024°58'0 0.0
2017-Nov-04 14:00N 60°06' E 024°58'0 0.0
2017-Nov-04 13:30N 60°06' E 024°58'0 0.0
2017-Nov-04 13:00N 60°06' E 024°58'0 0.0
2017-Nov-04 12:30N 60°06' E 024°58'0 0.0
2017-Nov-04 12:00N 60°06' E 024°58'0 0.0
2017-Nov-04 11:30N 60°06' E 024°58'0 0.0
2017-Nov-04 11:00N 60°06' E 024°58'0 0.0
2017-Nov-04 10:30N 60°06' E 024°58'0 0.0
2017-Nov-04 10:00N 60°06' E 024°58'0 0.0
2017-Nov-04 09:30N 60°06' E 024°58'0 0.0
2017-Nov-04 09:00N 60°06' E 024°58'0 0.0
2017-Nov-04 08:30N 60°06' E 024°58'0 0.0
2017-Nov-04 08:00N 60°06' E 024°58'0 0.0
2017-Nov-04 07:30N 60°06' E 024°58'0 0.0
2017-Nov-04 07:00N 60°06' E 024°58'0 0.0
2017-Nov-04 06:30N 60°06' E 024°58'0 0.0
2017-Nov-04 06:00N 60°06' E 024°58'0 0.0
2017-Nov-04 05:30N 60°06' E 024°58'0 0.0
2017-Nov-04 05:00N 60°06' E 024°58'0 0.0
2017-Nov-04 04:30N 60°06' E 024°58'0 0.0
2017-Nov-04 04:00N 60°06' E 024°58'0 0.0
2017-Nov-04 03:30N 60°06' E 024°58'0 0.0
2017-Nov-04 03:00N 60°06' E 024°58'0 0.0
2017-Nov-04 02:30N 60°06' E 024°58'0 0.0
2017-Nov-04 02:00N 60°06' E 024°58'0 0.0
2017-Nov-04 01:30N 60°06' E 024°58'0 0.0
2017-Nov-04 01:00N 60°06' E 024°58'0 0.0
2017-Nov-04 00:30N 60°06' E 024°58'0 0.0
2017-Nov-04 00:00N 60°06' E 024°58'0 0.0
2017-Nov-03 23:30N 60°06' E 024°58'0 0.0
2017-Nov-03 23:00N 60°06' E 024°58'0 0.0
2017-Nov-03 22:30N 60°06' E 024°58'0 0.0
2017-Nov-03 22:00N 60°06' E 024°58'0 0.0
2017-Nov-03 21:30N 60°06' E 024°58'0 0.0
2017-Nov-03 21:00N 60°06' E 024°58'0 0.0
2017-Nov-03 20:30N 60°06' E 024°58'0 0.0
2017-Nov-03 20:00N 60°06' E 024°58'4 7.8
2017-Nov-03 19:31N 60°10' E 024°58'0 0.0
2017-Nov-03 19:01N 60°10' E 024°58'0 0.0
2017-Nov-03 18:30N 60°10' E 024°58'0 0.0
2017-Nov-03 18:00N 60°10' E 024°58'0 0.0
2017-Nov-03 17:31N 60°10' E 024°58'0 0.0
2017-Nov-03 17:00N 60°10' E 024°58'0 0.0
2017-Nov-03 16:30N 60°10' E 024°58'0 0.0
2017-Nov-03 16:01N 60°10' E 024°58'4 7.8
2017-Nov-03 15:30N 60°06' E 024°58'0 0.0
2017-Nov-03 15:00N 60°06' E 024°58'0 0.0
2017-Nov-03 14:30N 60°06' E 024°58'0 0.0
2017-Nov-03 14:00N 60°06' E 024°58'0 0.0
2017-Nov-03 13:30N 60°06' E 024°58'0 0.0
2017-Nov-03 13:00N 60°06' E 024°58'0 0.0
2017-Nov-03 12:30N 60°06' E 024°58'0 0.0
2017-Nov-03 12:00N 60°06' E 024°58'0 0.0
2017-Nov-03 11:30N 60°06' E 024°58'0 0.0
2017-Nov-03 11:00N 60°06' E 024°58'0 0.0
2017-Nov-03 10:30N 60°06' E 024°58'0 0.0
2017-Nov-03 10:00N 60°06' E 024°58'0 0.0
2017-Nov-03 09:30N 60°06' E 024°58'0 0.0
2017-Nov-03 09:00N 60°06' E 024°58'0 0.0
2017-Nov-03 08:30N 60°06' E 024°58'0 0.0
2017-Nov-03 08:00N 60°06' E 024°58'0 0.0
2017-Nov-03 07:30N 60°06' E 024°58'0 0.0
2017-Nov-03 07:00N 60°06' E 024°58'0 0.0
2017-Nov-03 06:30N 60°06' E 024°58'0 0.0
2017-Nov-03 06:00N 60°06' E 024°58'0 0.0
2017-Nov-03 05:30N 60°06' E 024°58'0 0.0
2017-Nov-03 05:00N 60°06' E 024°58'0 0.0
2017-Nov-03 04:30N 60°06' E 024°58'0 0.0
2017-Nov-03 04:00N 60°06' E 024°58'0 0.0
2017-Nov-03 03:30N 60°06' E 024°58'0 0.0
2017-Nov-03 03:01N 60°06' E 024°58'0 0.0
2017-Nov-03 02:30N 60°06' E 024°58'0 0.0
2017-Nov-03 02:00N 60°06' E 024°58'0 0.0
2017-Nov-03 01:30N 60°06' E 024°58'0 0.0
2017-Nov-03 01:00N 60°06' E 024°58'0 0.0
2017-Nov-03 00:30N 60°06' E 024°58'0 0.0
2017-Nov-03 00:00N 60°06' E 024°58'0 0.0
2017-Nov-02 23:30N 60°06' E 024°58'0 0.0
2017-Nov-02 23:00N 60°06' E 024°58'0 0.0
2017-Nov-02 22:30N 60°06' E 024°58'0 0.0
2017-Nov-02 22:00N 60°06' E 024°58'0 0.0
2017-Nov-02 21:30N 60°06' E 024°58'0 0.0
2017-Nov-02 21:00N 60°06' E 024°58'0 0.0
2017-Nov-02 20:30N 60°06' E 024°58'0 0.0
2017-Nov-02 20:00N 60°06' E 024°58'0 0.0
2017-Nov-02 19:30N 60°06' E 024°58'0 0.0
2017-Nov-02 19:00N 60°06' E 024°58'0 0.0
2017-Nov-02 18:30N 60°06' E 024°58'0 0.0
2017-Nov-02 18:00N 60°06' E 024°58'0 0.0
2017-Nov-02 17:30N 60°06' E 024°58'0 0.0
2017-Nov-02 17:00N 60°06' E 024°58'0 0.0
2017-Nov-02 16:30N 60°06' E 024°58'0 0.0
2017-Nov-02 16:00N 60°06' E 024°58'0 0.0
2017-Nov-02 15:30N 60°06' E 024°58'0 0.0
2017-Nov-02 15:00N 60°06' E 024°58'0 0.0
2017-Nov-02 14:30N 60°06' E 024°58'0 0.0
2017-Nov-02 14:00N 60°06' E 024°58'0 0.0
2017-Nov-02 13:30N 60°06' E 024°58'0 0.0
2017-Nov-02 13:00N 60°06' E 024°58'0 0.0
2017-Nov-02 12:30N 60°06' E 024°58'0 0.0
2017-Nov-02 12:00N 60°06' E 024°58'0 0.0
2017-Nov-02 11:30N 60°06' E 024°58'0 0.0
2017-Nov-02 11:00N 60°06' E 024°58'0 0.0
2017-Nov-02 10:30N 60°06' E 024°58'0 0.0
2017-Nov-02 10:00N 60°06' E 024°58'0 0.0
2017-Nov-02 09:30N 60°06' E 024°58'0 0.0
2017-Nov-02 09:00N 60°06' E 024°58'0 0.0
2017-Nov-02 08:30N 60°06' E 024°58'0 0.0
2017-Nov-02 08:00N 60°06' E 024°58'0 0.0
2017-Nov-02 07:30N 60°06' E 024°58'0 0.0
2017-Nov-02 07:00N 60°06' E 024°58'0 0.0
2017-Nov-02 06:30N 60°06' E 024°58'0 0.0
2017-Nov-02 06:00N 60°06' E 024°58'0 0.0
2017-Nov-02 05:30N 60°06' E 024°58'0 0.0
2017-Nov-02 05:00N 60°06' E 024°58'0 0.0
2017-Nov-02 04:30N 60°06' E 024°58'0 0.0
2017-Nov-02 04:00N 60°06' E 024°58'0 0.0
2017-Nov-02 03:30N 60°06' E 024°58'0 0.0
2017-Nov-02 03:00N 60°06' E 024°58'0 0.0
2017-Nov-02 02:30N 60°06' E 024°58'0 0.0
2017-Nov-02 02:00N 60°06' E 024°58'0 0.0
2017-Nov-02 01:30N 60°06' E 024°58'0 0.0
2017-Nov-02 01:00N 60°06' E 024°58'0 0.0
2017-Nov-02 00:30N 60°06' E 024°58'0 0.0
2017-Nov-02 00:00N 60°06' E 024°58'0 0.0
2017-Nov-01 23:30N 60°06' E 024°58'0 0.0
2017-Nov-01 23:00N 60°06' E 024°58'0 0.0
2017-Nov-01 22:30N 60°06' E 024°58'0 0.0
2017-Nov-01 22:00N 60°06' E 024°58'0 0.0
2017-Nov-01 21:30N 60°06' E 024°58'0 0.0
2017-Nov-01 21:00N 60°06' E 024°58'0 0.0
2017-Nov-01 20:30N 60°06' E 024°58'0 0.0
2017-Nov-01 20:00N 60°06' E 024°58'0 0.0
2017-Nov-01 19:30N 60°06' E 024°58'0 0.0
2017-Nov-01 19:00N 60°06' E 024°58'0 0.0
2017-Nov-01 18:30N 60°06' E 024°58'0 0.0
2017-Nov-01 02:00N 60°06' E 024°58'0 0.0
2017-Nov-01 01:30N 60°06' E 024°58'0 0.0
2017-Nov-01 01:00N 60°06' E 024°58'0 0.0
2017-Nov-01 00:30N 60°06' E 024°58'0 0.0
2017-Nov-01 00:00N 60°06' E 024°58'0 0.0
2017-Oct-31 23:30N 60°06' E 024°58'0 0.0
2017-Oct-31 23:00N 60°06' E 024°58'0 0.0
2017-Oct-31 22:30N 60°06' E 024°58'0 0.0
2017-Oct-31 22:00N 60°06' E 024°58'0 0.0
2017-Oct-31 21:30N 60°06' E 024°58'0 0.0
2017-Oct-31 21:00N 60°06' E 024°58'0 0.0
2017-Oct-31 20:30N 60°06' E 024°58'0 0.0
2017-Oct-31 20:00N 60°06' E 024°58'0 0.0
2017-Oct-31 19:30N 60°06' E 024°58'0 0.0
2017-Oct-31 19:00N 60°06' E 024°58'0 0.0
2017-Oct-31 18:30N 60°06' E 024°58'0 0.0
2017-Oct-31 18:00N 60°06' E 024°58'0 0.0
2017-Oct-31 17:30N 60°06' E 024°58'0 0.0
2017-Oct-31 17:00N 60°06' E 024°58'0 0.0
2017-Oct-31 16:30N 60°06' E 024°58'0 0.0
2017-Oct-31 16:00N 60°06' E 024°58'0 0.0
2017-Oct-31 15:30N 60°06' E 024°58'0 0.0
2017-Oct-31 15:00N 60°06' E 024°58'0 0.0
2017-Oct-31 14:30N 60°06' E 024°58'4 7.9
2017-Oct-31 14:01N 60°10' E 024°58'0 0.0
2017-Oct-31 13:31N 60°10' E 024°58'0 0.0
2017-Oct-31 13:01N 60°10' E 024°58'0 0.0
2017-Oct-31 12:30N 60°10' E 024°58'0 0.0
2017-Oct-31 12:00N 60°10' E 024°58'0 0.0
2017-Oct-31 11:30N 60°10' E 024°58'0 0.0
2017-Oct-31 11:01N 60°10' E 024°58'0 0.0
2017-Oct-31 10:30N 60°10' E 024°58'0 0.0
2017-Oct-31 10:01N 60°10' E 024°58'0 0.0
2017-Oct-31 09:30N 60°10' E 024°58'0 0.0
2017-Oct-31 09:01N 60°10' E 024°58'0 0.0
2017-Oct-31 08:30N 60°10' E 024°58'0 0.0
2017-Oct-31 08:00N 60°10' E 024°58'  
Track history (hours):
 
Tides and Currents Weather Stations Pressure Air Temp Water Temp Dewpoint Dewpoint Depression Visibility Wind Speed Wind Dir Waves Ship Positions

Pilot L239

Last reported at 2017-Nov-10 07:33 UTC. Time now 2017-Dec-11 17:26 UTC.
Position N 63°18' E 021°30'.
Warning: this ship's position is 31 days out of date.

Length 15 m.

Type: Pilot. MMSI: 230035440.

Date/timePositionNaut miles runAvg speedWind from/ knotsBaromVisibWave heightAir tempDewpointWater temp
2017-Nov-10 07:33N 63°18' E 021°30'119.5
2017-Nov-10 07:30N 63°17' E 021°30'918.7
2017-Nov-10 07:01N 63°08' E 021°25'917.4
2017-Nov-10 06:31N 63°11' E 021°07'2 3.4
2017-Nov-10 06:00N 63°13' E 021°09'0 0.0
2017-Nov-10 05:30N 63°13' E 021°09'0 0.0
2017-Nov-10 05:00N 63°13' E 021°09'0 0.0
2017-Nov-10 04:30N 63°13' E 021°09'0 0.0
2017-Nov-10 04:00N 63°13' E 021°09'0 0.0
2017-Nov-10 03:30N 63°13' E 021°09'0 0.0
2017-Nov-10 03:00N 63°13' E 021°09'0 0.0
2017-Nov-10 02:30N 63°13' E 021°09'0 0.0
2017-Nov-10 02:00N 63°13' E 021°09'0 0.0
2017-Nov-10 01:30N 63°13' E 021°09'0 0.0
2017-Nov-10 01:01N 63°13' E 021°09'0 0.0
2017-Nov-10 00:30N 63°13' E 021°09'0 0.0
2017-Nov-10 00:00N 63°13' E 021°09'0 0.0
2017-Nov-09 23:30N 63°13' E 021°09'0 0.0
2017-Nov-09 23:01N 63°13' E 021°09'0 0.0
2017-Nov-09 22:30N 63°13' E 021°09'0 0.0
2017-Nov-09 22:00N 63°13' E 021°09'0 0.0
2017-Nov-09 21:31N 63°13' E 021°09'0 0.0
2017-Nov-09 21:00N 63°13' E 021°09'0 0.0
2017-Nov-09 20:30N 63°13' E 021°09'0 0.0
2017-Nov-09 20:00N 63°13' E 021°09'0 0.0
2017-Nov-09 19:30N 63°13' E 021°09'3 5.1
2017-Nov-09 19:01N 63°11' E 021°05'918.7
2017-Nov-09 18:30N 63°05' E 020°48'816.1
2017-Nov-09 18:01N 62°58' E 020°40'10317.4
2017-Nov-09 12:04N 61°16' E 021°05'117.7
2017-Nov-09 12:01N 61°15' E 021°05'1019.3
2017-Nov-09 11:31N 61°05' E 021°04'97 4.1
2017-Nov-08 11:46N 59°48' E 023°03'518.1
2017-Nov-08 11:31N 59°48' E 023°12'917.5
2017-Nov-08 11:01N 59°50' E 023°29'918.9
2017-Nov-08 10:31N 59°55' E 023°45'2316.2
2017-Nov-08 09:04N 59°59' E 024°31'219.6
2017-Nov-08 08:59N 59°60' E 024°34'918.9
2017-Nov-08 08:31N 60°05' E 024°48'510.5
2017-Nov-08 08:01N 60°06' E 024°58'0 0.0
2017-Nov-08 07:30N 60°06' E 024°58'0 0.0
2017-Nov-08 07:00N 60°06' E 024°58'0 0.0
2017-Nov-08 06:31N 60°06' E 024°58'0 0.0
2017-Nov-08 06:00N 60°06' E 024°58'0 0.0
2017-Nov-08 05:30N 60°06' E 024°58'0 0.0
2017-Nov-08 05:01N 60°06' E 024°58'0 0.0
2017-Nov-08 04:30N 60°06' E 024°58'0 0.0
2017-Nov-08 04:00N 60°06' E 024°58'0 0.0
2017-Nov-08 03:30N 60°06' E 024°58'0 0.0
2017-Nov-08 03:01N 60°06' E 024°58'0 0.0
2017-Nov-08 02:30N 60°06' E 024°58'0 0.0
2017-Nov-08 02:01N 60°06' E 024°58'0 0.0
2017-Nov-08 01:31N 60°06' E 024°58'0 0.0
2017-Nov-08 01:01N 60°06' E 024°58'0 0.0
2017-Nov-08 00:30N 60°06' E 024°58'0 0.0
2017-Nov-08 00:01N 60°06' E 024°58'0 0.0
2017-Nov-07 23:31N 60°06' E 024°58'0 0.0
2017-Nov-07 23:00N 60°06' E 024°58'0 0.0
2017-Nov-07 22:30N 60°06' E 024°58'0 0.0
2017-Nov-07 22:01N 60°06' E 024°58'0 0.0
2017-Nov-07 21:31N 60°06' E 024°58'0 0.0
2017-Nov-07 21:00N 60°06' E 024°58'0 0.0
2017-Nov-07 20:31N 60°06' E 024°58'0 0.0
2017-Nov-07 20:01N 60°06' E 024°58'0 0.0
2017-Nov-07 19:31N 60°06' E 024°58'0 0.0
2017-Nov-07 19:01N 60°06' E 024°58'0 0.0
2017-Nov-07 18:30N 60°06' E 024°58'0 0.0
2017-Nov-07 18:01N 60°06' E 024°58'0 0.0
2017-Nov-07 17:31N 60°06' E 024°58'0 0.0
2017-Nov-07 17:00N 60°06' E 024°58'0 0.0
2017-Nov-07 16:30N 60°06' E 024°58'0 0.0
2017-Nov-07 16:01N 60°06' E 024°58'0 0.0
2017-Nov-07 15:30N 60°06' E 024°58'0 0.0
2017-Nov-07 15:01N 60°06' E 024°58'0 0.0
2017-Nov-07 14:31N 60°06' E 024°58'0 0.0
2017-Nov-07 14:00N 60°06' E 024°58'0 0.0
2017-Nov-07 13:31N 60°06' E 024°58'2 3.3
2017-Nov-07 13:00N 60°08' E 024°59'2 4.7
2017-Nov-07 12:31N 60°10' E 024°58'0 0.0
2017-Nov-07 12:00N 60°10' E 024°58'2 3.1
2017-Nov-07 11:30N 60°11' E 025°01'4 8.8
2017-Nov-07 11:00N 60°06' E 024°58'0 0.0
2017-Nov-07 10:30N 60°06' E 024°58'0 0.0
2017-Nov-07 10:00N 60°06' E 024°58'0 0.0
2017-Nov-07 09:30N 60°06' E 024°58'0 0.0
2017-Nov-07 09:00N 60°06' E 024°58'0 0.0
2017-Nov-07 08:30N 60°06' E 024°58'0 0.0
2017-Nov-07 08:00N 60°06' E 024°58'0 0.0
2017-Nov-07 07:30N 60°06' E 024°58'0 0.0
2017-Nov-07 07:00N 60°06' E 024°58'0 0.0
2017-Nov-07 06:30N 60°06' E 024°58'0 0.0
2017-Nov-07 06:00N 60°06' E 024°58'0 0.0
2017-Nov-07 05:30N 60°06' E 024°58'0 0.0
2017-Nov-07 05:00N 60°06' E 024°58'0 0.0
2017-Nov-07 04:30N 60°06' E 024°58'0 0.0
2017-Nov-07 04:00N 60°06' E 024°58'0 0.0
2017-Nov-07 03:30N 60°06' E 024°58'0 0.0
2017-Nov-07 03:00N 60°06' E 024°58'0 0.0
2017-Nov-07 02:30N 60°06' E 024°58'0 0.0
2017-Nov-07 02:00N 60°06' E 024°58'0 0.0
2017-Nov-07 01:30N 60°06' E 024°58'0 0.0
2017-Nov-07 01:00N 60°06' E 024°58'0 0.0
2017-Nov-07 00:30N 60°06' E 024°58'0 0.0
2017-Nov-07 00:00N 60°06' E 024°58'0 0.0
2017-Nov-06 23:30N 60°06' E 024°58'0 0.0
2017-Nov-06 23:00N 60°06' E 024°58'0 0.0
2017-Nov-06 22:30N 60°06' E 024°58'0 0.0
2017-Nov-06 22:00N 60°06' E 024°58'0 0.0
2017-Nov-06 21:30N 60°06' E 024°58'0 0.0
2017-Nov-06 21:00N 60°06' E 024°58'0 0.0
2017-Nov-06 20:30N 60°06' E 024°58'0 0.0
2017-Nov-06 02:30N 60°06' E 024°58'0 0.0
2017-Nov-06 02:00N 60°06' E 024°58'0 0.0
2017-Nov-06 01:30N 60°06' E 024°58'0 0.0
2017-Nov-06 01:00N 60°06' E 024°58'0 0.0
2017-Nov-06 00:30N 60°06' E 024°58'0 0.0
2017-Nov-06 00:00N 60°06' E 024°58'0 0.0
2017-Nov-05 23:30N 60°06' E 024°58'0 0.0
2017-Nov-05 23:00N 60°06' E 024°58'0 0.0
2017-Nov-05 22:30N 60°06' E 024°58'0 0.0
2017-Nov-05 22:00N 60°06' E 024°58'0 0.0
2017-Nov-05 21:30N 60°06' E 024°58'0 0.0
2017-Nov-05 21:00N 60°06' E 024°58'0 0.0
2017-Nov-05 20:30N 60°06' E 024°58'0 0.0
2017-Nov-05 20:00N 60°06' E 024°58'0 0.0
2017-Nov-05 19:30N 60°06' E 024°58'0 0.0
2017-Nov-05 19:00N 60°06' E 024°58'0 0.0
2017-Nov-05 18:30N 60°06' E 024°58'0 0.0
2017-Nov-05 18:00N 60°06' E 024°58'0 0.0
2017-Nov-05 17:30N 60°06' E 024°58'0 0.0
2017-Nov-05 17:00N 60°06' E 024°58'0 0.0
2017-Nov-05 16:30N 60°06' E 024°58'0 0.0
2017-Nov-05 16:00N 60°06' E 024°58'0 0.0
2017-Nov-05 15:30N 60°06' E 024°58'0 0.0
2017-Nov-05 15:00N 60°06' E 024°58'0 0.0
2017-Nov-05 14:30N 60°06' E 024°58'0 0.0
2017-Nov-05 14:00N 60°06' E 024°58'0 0.0
2017-Nov-05 13:30N 60°06' E 024°58'0 0.0
2017-Nov-05 13:00N 60°06' E 024°58'0 0.0
2017-Nov-05 12:30N 60°06' E 024°58'0 0.0
2017-Nov-05 12:00N 60°06' E 024°58'0 0.0
2017-Nov-05 11:30N 60°06' E 024°58'0 0.0
2017-Nov-05 11:00N 60°06' E 024°58'0 0.0
2017-Nov-05 10:30N 60°06' E 024°58'0 0.0
2017-Nov-05 10:00N 60°06' E 024°58'0 0.0
2017-Nov-05 09:30N 60°06' E 024°58'0 0.0
2017-Nov-05 09:00N 60°06' E 024°58'0 0.0
2017-Nov-05 08:30N 60°06' E 024°58'0 0.0
2017-Nov-05 08:00N 60°06' E 024°58'0 0.0
2017-Nov-05 07:30N 60°06' E 024°58'0 0.0
2017-Nov-05 07:00N 60°06' E 024°58'0 0.0
2017-Nov-05 06:30N 60°06' E 024°58'0 0.0
2017-Nov-05 06:00N 60°06' E 024°58'0 0.0
2017-Nov-05 05:30N 60°06' E 024°58'0 0.0
2017-Nov-05 05:00N 60°06' E 024°58'0 0.0
2017-Nov-05 04:30N 60°06' E 024°58'0 0.0
2017-Nov-05 04:00N 60°06' E 024°58'0 0.0
2017-Nov-05 03:30N 60°06' E 024°58'0 0.0
2017-Nov-05 03:00N 60°06' E 024°58'0 0.0
2017-Nov-05 02:30N 60°06' E 024°58'0 0.0
2017-Nov-05 02:00N 60°06' E 024°58'0 0.0
2017-Nov-05 01:30N 60°06' E 024°58'0 0.0
2017-Nov-05 01:00N 60°06' E 024°58'0 0.0
2017-Nov-05 00:30N 60°06' E 024°58'0 0.0
2017-Nov-05 00:00N 60°06' E 024°58'0 0.0
2017-Nov-04 23:30N 60°06' E 024°58'0 0.0
2017-Nov-04 23:00N 60°06' E 024°58'0 0.0
2017-Nov-04 22:30N 60°06' E 024°58'0 0.0
2017-Nov-04 22:00N 60°06' E 024°58'0 0.0
2017-Nov-04 21:30N 60°06' E 024°58'0 0.0
2017-Nov-04 21:00N 60°06' E 024°58'0 0.0
2017-Nov-04 20:30N 60°06' E 024°58'0 0.0
2017-Nov-04 20:00N 60°06' E 024°58'0 0.0
2017-Nov-04 19:30N 60°06' E 024°58'0 0.0
2017-Nov-04 19:00N 60°06' E 024°58'0 0.0
2017-Nov-04 18:30N 60°06' E 024°58'0 0.0
2017-Nov-04 18:00N 60°06' E 024°58'0 0.0
2017-Nov-04 17:30N 60°06' E 024°58'0 0.0
2017-Nov-04 17:00N 60°06' E 024°58'0 0.0
2017-Nov-04 16:30N 60°06' E 024°58'0 0.0
2017-Nov-04 16:00N 60°06' E 024°58'0 0.0
2017-Nov-04 15:30N 60°06' E 024°58'0 0.0
2017-Nov-04 15:00N 60°06' E 024°58'0 0.0
2017-Nov-04 14:30N 60°06' E 024°58'0 0.0
2017-Nov-04 14:00N 60°06' E 024°58'0 0.0
2017-Nov-04 13:30N 60°06' E 024°58'0 0.0
2017-Nov-04 13:00N 60°06' E 024°58'0 0.0
2017-Nov-04 12:30N 60°06' E 024°58'0 0.0
2017-Nov-04 12:00N 60°06' E 024°58'0 0.0
2017-Nov-04 11:30N 60°06' E 024°58'0 0.0
2017-Nov-04 11:00N 60°06' E 024°58'0 0.0
2017-Nov-04 10:30N 60°06' E 024°58'0 0.0
2017-Nov-04 10:00N 60°06' E 024°58'0 0.0
2017-Nov-04 09:30N 60°06' E 024°58'0 0.0
2017-Nov-04 09:00N 60°06' E 024°58'0 0.0
2017-Nov-04 08:30N 60°06' E 024°58'0 0.0
2017-Nov-04 08:00N 60°06' E 024°58'0 0.0
2017-Nov-04 07:30N 60°06' E 024°58'0 0.0
2017-Nov-04 07:00N 60°06' E 024°58'0 0.0
2017-Nov-04 06:30N 60°06' E 024°58'0 0.0
2017-Nov-04 06:00N 60°06' E 024°58'0 0.0
2017-Nov-04 05:30N 60°06' E 024°58'0 0.0
2017-Nov-04 05:00N 60°06' E 024°58'0 0.0
2017-Nov-04 04:30N 60°06' E 024°58'0 0.0
2017-Nov-04 04:00N 60°06' E 024°58'0 0.0
2017-Nov-04 03:30N 60°06' E 024°58'0 0.0
2017-Nov-04 03:00N 60°06' E 024°58'0 0.0
2017-Nov-04 02:30N 60°06' E 024°58'0 0.0
2017-Nov-04 02:00N 60°06' E 024°58'0 0.0
2017-Nov-04 01:30N 60°06' E 024°58'0 0.0
2017-Nov-04 01:00N 60°06' E 024°58'0 0.0
2017-Nov-04 00:30N 60°06' E 024°58'0 0.0
2017-Nov-04 00:00N 60°06' E 024°58'0 0.0
2017-Nov-03 23:30N 60°06' E 024°58'0 0.0
2017-Nov-03 23:00N 60°06' E 024°58'0 0.0
2017-Nov-03 22:30N 60°06' E 024°58'0 0.0
2017-Nov-03 22:00N 60°06' E 024°58'0 0.0
2017-Nov-03 21:30N 60°06' E 024°58'0 0.0
2017-Nov-03 21:00N 60°06' E 024°58'0 0.0
2017-Nov-03 20:30N 60°06' E 024°58'0 0.0
2017-Nov-03 20:00N 60°06' E 024°58'4 7.8
2017-Nov-03 19:31N 60°10' E 024°58'0 0.0
2017-Nov-03 19:01N 60°10' E 024°58'0 0.0
2017-Nov-03 18:30N 60°10' E 024°58'0 0.0
2017-Nov-03 18:00N 60°10' E 024°58'0 0.0
2017-Nov-03 17:31N 60°10' E 024°58'0 0.0
2017-Nov-03 17:00N 60°10' E 024°58'0 0.0
2017-Nov-03 16:30N 60°10' E 024°58'0 0.0
2017-Nov-03 16:01N 60°10' E 024°58'4 7.8
2017-Nov-03 15:30N 60°06' E 024°58'0 0.0
2017-Nov-03 15:00N 60°06' E 024°58'0 0.0
2017-Nov-03 14:30N 60°06' E 024°58'0 0.0
2017-Nov-03 14:00N 60°06' E 024°58'0 0.0
2017-Nov-03 13:30N 60°06' E 024°58'0 0.0
2017-Nov-03 13:00N 60°06' E 024°58'0 0.0
2017-Nov-03 12:30N 60°06' E 024°58'0 0.0
2017-Nov-03 12:00N 60°06' E 024°58'0 0.0
2017-Nov-03 11:30N 60°06' E 024°58'0 0.0
2017-Nov-03 11:00N 60°06' E 024°58'0 0.0
2017-Nov-03 10:30N 60°06' E 024°58'0 0.0
2017-Nov-03 10:00N 60°06' E 024°58'0 0.0
2017-Nov-03 09:30N 60°06' E 024°58'0 0.0
2017-Nov-03 09:00N 60°06' E 024°58'0 0.0
2017-Nov-03 08:30N 60°06' E 024°58'0 0.0
2017-Nov-03 08:00N 60°06' E 024°58'0 0.0
2017-Nov-03 07:30N 60°06' E 024°58'0 0.0
2017-Nov-03 07:00N 60°06' E 024°58'0 0.0
2017-Nov-03 06:30N 60°06' E 024°58'0 0.0
2017-Nov-03 06:00N 60°06' E 024°58'0 0.0
2017-Nov-03 05:30N 60°06' E 024°58'0 0.0
2017-Nov-03 05:00N 60°06' E 024°58'0 0.0
2017-Nov-03 04:30N 60°06' E 024°58'0 0.0
2017-Nov-03 04:00N 60°06' E 024°58'0 0.0
2017-Nov-03 03:30N 60°06' E 024°58'0 0.0
2017-Nov-03 03:01N 60°06' E 024°58'0 0.0
2017-Nov-03 02:30N 60°06' E 024°58'0 0.0
2017-Nov-03 02:00N 60°06' E 024°58'0 0.0
2017-Nov-03 01:30N 60°06' E 024°58'0 0.0
2017-Nov-03 01:00N 60°06' E 024°58'0 0.0
2017-Nov-03 00:30N 60°06' E 024°58'0 0.0
2017-Nov-03 00:00N 60°06' E 024°58'0 0.0
2017-Nov-02 23:30N 60°06' E 024°58'0 0.0
2017-Nov-02 23:00N 60°06' E 024°58'0 0.0
2017-Nov-02 22:30N 60°06' E 024°58'0 0.0
2017-Nov-02 22:00N 60°06' E 024°58'0 0.0
2017-Nov-02 21:30N 60°06' E 024°58'0 0.0
2017-Nov-02 21:00N 60°06' E 024°58'0 0.0
2017-Nov-02 20:30N 60°06' E 024°58'0 0.0
2017-Nov-02 20:00N 60°06' E 024°58'0 0.0
2017-Nov-02 19:30N 60°06' E 024°58'0 0.0
2017-Nov-02 19:00N 60°06' E 024°58'0 0.0
2017-Nov-02 18:30N 60°06' E 024°58'0 0.0
2017-Nov-02 18:00N 60°06' E 024°58'0 0.0
2017-Nov-02 17:30N 60°06' E 024°58'0 0.0
2017-Nov-02 17:00N 60°06' E 024°58'0 0.0
2017-Nov-02 16:30N 60°06' E 024°58'0 0.0
2017-Nov-02 16:00N 60°06' E 024°58'0 0.0
2017-Nov-02 15:30N 60°06' E 024°58'0 0.0
2017-Nov-02 15:00N 60°06' E 024°58'0 0.0
2017-Nov-02 14:30N 60°06' E 024°58'0 0.0
2017-Nov-02 14:00N 60°06' E 024°58'0 0.0
2017-Nov-02 13:30N 60°06' E 024°58'0 0.0
2017-Nov-02 13:00N 60°06' E 024°58'0 0.0
2017-Nov-02 12:30N 60°06' E 024°58'0 0.0
2017-Nov-02 12:00N 60°06' E 024°58'0 0.0
2017-Nov-02 11:30N 60°06' E 024°58'0 0.0
2017-Nov-02 11:00N 60°06' E 024°58'0 0.0
2017-Nov-02 10:30N 60°06' E 024°58'0 0.0
2017-Nov-02 10:00N 60°06' E 024°58'0 0.0
2017-Nov-02 09:30N 60°06' E 024°58'0 0.0
2017-Nov-02 09:00N 60°06' E 024°58'0 0.0
2017-Nov-02 08:30N 60°06' E 024°58'0 0.0
2017-Nov-02 08:00N 60°06' E 024°58'0 0.0
2017-Nov-02 07:30N 60°06' E 024°58'0 0.0
2017-Nov-02 07:00N 60°06' E 024°58'0 0.0
2017-Nov-02 06:30N 60°06' E 024°58'0 0.0
2017-Nov-02 06:00N 60°06' E 024°58'0 0.0
2017-Nov-02 05:30N 60°06' E 024°58'0 0.0
2017-Nov-02 05:00N 60°06' E 024°58'0 0.0
2017-Nov-02 04:30N 60°06' E 024°58'0 0.0
2017-Nov-02 04:00N 60°06' E 024°58'0 0.0
2017-Nov-02 03:30N 60°06' E 024°58'0 0.0
2017-Nov-02 03:00N 60°06' E 024°58'0 0.0
2017-Nov-02 02:30N 60°06' E 024°58'0 0.0
2017-Nov-02 02:00N 60°06' E 024°58'0 0.0
2017-Nov-02 01:30N 60°06' E 024°58'0 0.0
2017-Nov-02 01:00N 60°06' E 024°58'0 0.0
2017-Nov-02 00:30N 60°06' E 024°58'0 0.0
2017-Nov-02 00:00N 60°06' E 024°58'0 0.0
2017-Nov-01 23:30N 60°06' E 024°58'0 0.0
2017-Nov-01 23:00N 60°06' E 024°58'0 0.0
2017-Nov-01 22:30N 60°06' E 024°58'0 0.0
2017-Nov-01 22:00N 60°06' E 024°58'0 0.0
2017-Nov-01 21:30N 60°06' E 024°58'0 0.0
2017-Nov-01 21:00N 60°06' E 024°58'0 0.0
2017-Nov-01 20:30N 60°06' E 024°58'0 0.0
2017-Nov-01 20:00N 60°06' E 024°58'0 0.0
2017-Nov-01 19:30N 60°06' E 024°58'0 0.0
2017-Nov-01 19:00N 60°06' E 024°58'0 0.0
2017-Nov-01 18:30N 60°06' E 024°58'0 0.0
2017-Nov-01 02:00N 60°06' E 024°58'0 0.0
2017-Nov-01 01:30N 60°06' E 024°58'0 0.0
2017-Nov-01 01:00N 60°06' E 024°58'0 0.0
2017-Nov-01 00:30N 60°06' E 024°58'0 0.0
2017-Nov-01 00:00N 60°06' E 024°58'0 0.0
2017-Oct-31 23:30N 60°06' E 024°58'0 0.0
2017-Oct-31 23:00N 60°06' E 024°58'0 0.0
2017-Oct-31 22:30N 60°06' E 024°58'0 0.0
2017-Oct-31 22:00N 60°06' E 024°58'0 0.0
2017-Oct-31 21:30N 60°06' E 024°58'0 0.0
2017-Oct-31 21:00N 60°06' E 024°58'0 0.0
2017-Oct-31 20:30N 60°06' E 024°58'0 0.0
2017-Oct-31 20:00N 60°06' E 024°58'0 0.0
2017-Oct-31 19:30N 60°06' E 024°58'0 0.0
2017-Oct-31 19:00N 60°06' E 024°58'0 0.0
2017-Oct-31 18:30N 60°06' E 024°58'0 0.0
2017-Oct-31 18:00N 60°06' E 024°58'0 0.0
2017-Oct-31 17:30N 60°06' E 024°58'0 0.0
2017-Oct-31 17:00N 60°06' E 024°58'0 0.0
2017-Oct-31 16:30N 60°06' E 024°58'0 0.0
2017-Oct-31 16:00N 60°06' E 024°58'0 0.0
2017-Oct-31 15:30N 60°06' E 024°58'0 0.0
2017-Oct-31 15:00N 60°06' E 024°58'0 0.0
2017-Oct-31 14:30N 60°06' E 024°58'4 7.9
2017-Oct-31 14:01N 60°10' E 024°58'0 0.0
2017-Oct-31 13:31N 60°10' E 024°58'0 0.0
2017-Oct-31 13:01N 60°10' E 024°58'0 0.0
2017-Oct-31 12:30N 60°10' E 024°58'0 0.0
2017-Oct-31 12:00N 60°10' E 024°58'0 0.0
2017-Oct-31 11:30N 60°10' E 024°58'0 0.0
2017-Oct-31 11:01N 60°10' E 024°58'0 0.0
2017-Oct-31 10:30N 60°10' E 024°58'0 0.0
2017-Oct-31 10:01N 60°10' E 024°58'0 0.0
2017-Oct-31 09:30N 60°10' E 024°58'0 0.0
2017-Oct-31 09:01N 60°10' E 024°58'0 0.0
2017-Oct-31 08:30N 60°10' E 024°58'0 0.0
2017-Oct-31 08:00N 60°10' E 024°58'  

Dump ship's entire track history